Bugt, China
Current Conditions -  °F | °C
As of 5:00 AM on Saturday 25 Oct 2014 (Local Time) from ZYTX Reporting Station
Broken Clouds Broken Clouds  
Wind Chill: 64°   Ceiling: 4000
Heat Index: 64°   Visibility: 4mi
Dew Point: 52°   Wind: 7mph
Humidity: 64%   Direction: 180°S
Pressure: 29.83"   Gusts: NA
Location:  42.33°N, 120.7°E
Report Text: ZYTX 242100Z 18003MPS 150V210 6000 BKN040 18/11 Q1010 NOSIG
Loading
Personal Weather Stations






























Interactive Weather Map New forecast layout! Learn more

10-Day Weather Forecast

Advertisements
Track Severe Weather on mobile